To NAV CANADA Home Page Login to a new session Search on AWWS site Feedback and Comments Disclaimer Vers la page française équivalente Tips FAQ What's new on the site To the Forecasts and Observations / NOTAM section To "File a Flight Plan" website Publications and other links Update of the User's profile FIC Telephone Numbers My Weather Data Folder Route Weather Data Regional Weather Data Local Weather Data To the Forecasts and Observations / NOTAM section
Request Generated 08/29/2015 at 00:11:02 UTC . Weather information available at that time is displayed.

METAR/TAF

SCHEFFERVILLE/QC    (show WxCam)

METAR CYKL 290000Z AUTO 30004KT 9SM FEW024 OVC110 10/08 A2980 RMK
TS/LTNG TEMPO UNAVBL SLP105=
METAR CYKL 282300Z AUTO 32007KT 9SM BKN040 OVC065 11/09 A2977 RMK
SLP094=
METAR CYKL 282200Z AUTO 33005KT 9SM FEW037 OVC050 10/09 A2975 RMK
TS/LTNG TEMPO UNAVBL SLP088=

TAF AMD CYKL 281943Z 2820/2908 34010G20KT P6SM FEW020 OVC070 TEMPO
2820/2824 5SM -SHRA BR OVC020
BECMG 2822/2824 31010KT
FM290000 31010KT P6SM SCT020
BECMG 2900/2902 31010KT
RMK FCST BASED ON AUTO OBS. NXT FCST BY 290200Z=
Your time UTC time
Weather data provided by Environment Canada and NAV CANADA